sensor_id;sensor_type;location;lat;lon;timestamp;P1;durP1;ratioP1;P2;durP2;ratioP2
14153;SDS011;7157;53.144;7.570;2023-04-03T00:00:21;4.25;;;0.90;;
14153;SDS011;7157;53.144;7.570;2023-04-03T00:10:25;2.30;;;0.70;;
14153;SDS011;7157;53.144;7.570;2023-04-03T00:20:28;1.42;;;0.60;;
14153;SDS011;7157;53.144;7.570;2023-04-03T00:30:32;1.45;;;0.73;;
14153;SDS011;7157;53.144;7.570;2023-04-03T00:40:36;3.72;;;1.17;;
14153;SDS011;7157;53.144;7.570;2023-04-03T00:50:41;2.53;;;0.98;;
14153;SDS011;7157;53.144;7.570;2023-04-03T01:00:46;2.55;;;1.02;;
14153;SDS011;7157;53.144;7.570;2023-04-03T01:10:59;4.45;;;1.20;;
14153;SDS011;7157;53.144;7.570;2023-04-03T01:31:44;2.53;;;0.70;;
14153;SDS011;7157;53.144;7.570;2023-04-03T01:41:49;4.47;;;0.88;;
14153;SDS011;7157;53.144;7.570;2023-04-03T01:51:53;4.38;;;1.20;;
14153;SDS011;7157;53.144;7.570;2023-04-03T02:01:56;2.88;;;0.95;;
14153;SDS011;7157;53.144;7.570;2023-04-03T02:12:00;2.33;;;0.88;;
14153;SDS011;7157;53.144;7.570;2023-04-03T02:22:03;2.83;;;1.23;;
14153;SDS011;7157;53.144;7.570;2023-04-03T02:32:07;2.80;;;1.38;;
14153;SDS011;7157;53.144;7.570;2023-04-03T02:42:10;7.28;;;1.05;;
14153;SDS011;7157;53.144;7.570;2023-04-03T02:52:14;5.43;;;1.15;;
14153;SDS011;7157;53.144;7.570;2023-04-03T03:02:17;4.72;;;1.30;;
14153;SDS011;7157;53.144;7.570;2023-04-03T03:12:21;4.88;;;1.08;;
14153;SDS011;7157;53.144;7.570;2023-04-03T03:22:25;4.32;;;1.38;;
14153;SDS011;7157;53.144;7.570;2023-04-03T03:32:29;7.70;;;1.08;;
14153;SDS011;7157;53.144;7.570;2023-04-03T03:42:32;3.13;;;1.08;;
14153;SDS011;7157;53.144;7.570;2023-04-03T03:52:36;4.13;;;1.20;;
14153;SDS011;7157;53.144;7.570;2023-04-03T04:02:39;6.05;;;1.30;;
14153;SDS011;7157;53.144;7.570;2023-04-03T04:12:44;2.60;;;1.15;;
14153;SDS011;7157;53.144;7.570;2023-04-03T04:22:46;4.82;;;1.90;;
14153;SDS011;7157;53.144;7.570;2023-04-03T04:32:50;4.90;;;2.20;;
14153;SDS011;7157;53.144;7.570;2023-04-03T04:42:53;7.32;;;1.85;;
14153;SDS011;7157;53.144;7.570;2023-04-03T04:52:57;2.38;;;1.17;;
14153;SDS011;7157;53.144;7.570;2023-04-03T05:03:00;7.97;;;2.35;;
14153;SDS011;7157;53.144;7.570;2023-04-03T05:13:04;6.07;;;2.10;;
14153;SDS011;7157;53.144;7.570;2023-04-03T05:23:07;2.50;;;1.13;;
14153;SDS011;7157;53.144;7.570;2023-04-03T05:33:11;2.92;;;1.10;;
14153;SDS011;7157;53.144;7.570;2023-04-03T05:43:15;2.53;;;1.15;;
14153;SDS011;7157;53.144;7.570;2023-04-03T05:53:21;6.38;;;2.28;;
14153;SDS011;7157;53.144;7.570;2023-04-03T06:03:26;6.20;;;2.22;;
14153;SDS011;7157;53.144;7.570;2023-04-03T06:13:30;5.20;;;2.10;;
14153;SDS011;7157;53.144;7.570;2023-04-03T06:23:33;6.03;;;1.92;;
14153;SDS011;7157;53.144;7.570;2023-04-03T06:33:37;7.13;;;2.20;;
14153;SDS011;7157;53.144;7.570;2023-04-03T06:43:39;6.50;;;1.80;;
14153;SDS011;7157;53.144;7.570;2023-04-03T06:53:44;4.82;;;1.83;;
14153;SDS011;7157;53.144;7.570;2023-04-03T07:03:47;8.07;;;2.35;;
14153;SDS011;7157;53.144;7.570;2023-04-03T07:13:51;6.03;;;1.75;;
14153;SDS011;7157;53.144;7.570;2023-04-03T07:23:54;5.88;;;1.73;;
14153;SDS011;7157;53.144;7.570;2023-04-03T07:33:59;4.35;;;1.40;;
14153;SDS011;7157;53.144;7.570;2023-04-03T07:44:01;6.05;;;1.45;;
14153;SDS011;7157;53.144;7.570;2023-04-03T07:54:07;7.18;;;1.67;;
14153;SDS011;7157;53.144;7.570;2023-04-03T08:04:09;3.13;;;1.30;;
14153;SDS011;7157;53.144;7.570;2023-04-03T08:14:14;5.32;;;0.95;;
14153;SDS011;7157;53.144;7.570;2023-04-03T08:24:19;4.47;;;1.25;;
14153;SDS011;7157;53.144;7.570;2023-04-03T08:34:23;3.00;;;0.88;;
14153;SDS011;7157;53.144;7.570;2023-04-03T08:44:28;6.47;;;1.10;;
14153;SDS011;7157;53.144;7.570;2023-04-03T08:54:47;2.90;;;1.13;;
14153;SDS011;7157;53.144;7.570;2023-04-03T09:04:52;3.10;;;0.83;;
14153;SDS011;7157;53.144;7.570;2023-04-03T09:14:59;2.33;;;0.77;;
14153;SDS011;7157;53.144;7.570;2023-04-03T09:25:10;3.25;;;1.17;;
14153;SDS011;7157;53.144;7.570;2023-04-03T09:35:19;4.40;;;1.00;;
14153;SDS011;7157;53.144;7.570;2023-04-03T09:45:40;1.80;;;0.60;;
14153;SDS011;7157;53.144;7.570;2023-04-03T09:55:44;2.83;;;1.10;;
14153;SDS011;7157;53.144;7.570;2023-04-03T10:05:48;2.03;;;0.70;;
14153;SDS011;7157;53.144;7.570;2023-04-03T10:15:55;1.65;;;0.73;;
14153;SDS011;7157;53.144;7.570;2023-04-03T10:26:05;4.40;;;1.03;;
14153;SDS011;7157;53.144;7.570;2023-04-03T10:36:21;4.50;;;0.93;;
14153;SDS011;7157;53.144;7.570;2023-04-03T10:46:32;3.63;;;0.95;;
14153;SDS011;7157;53.144;7.570;2023-04-03T10:56:41;2.35;;;0.95;;
14153;SDS011;7157;53.144;7.570;2023-04-03T11:06:47;3.17;;;1.00;;
14153;SDS011;7157;53.144;7.570;2023-04-03T11:16:55;3.83;;;1.08;;
14153;SDS011;7157;53.144;7.570;2023-04-03T11:27:19;5.22;;;1.08;;
14153;SDS011;7157;53.144;7.570;2023-04-03T11:37:28;4.85;;;2.00;;
14153;SDS011;7157;53.144;7.570;2023-04-03T11:47:47;3.95;;;1.40;;
14153;SDS011;7157;53.144;7.570;2023-04-03T11:58:04;5.40;;;1.17;;
14153;SDS011;7157;53.144;7.570;2023-04-03T12:08:23;4.53;;;1.02;;
14153;SDS011;7157;53.144;7.570;2023-04-03T12:29:07;3.85;;;0.90;;
14153;SDS011;7157;53.144;7.570;2023-04-03T12:39:24;3.37;;;1.03;;
14153;SDS011;7157;53.144;7.570;2023-04-03T12:49:39;3.88;;;1.00;;
14153;SDS011;7157;53.144;7.570;2023-04-03T12:59:45;4.00;;;1.08;;
14153;SDS011;7157;53.144;7.570;2023-04-03T13:09:54;5.03;;;1.25;;
14153;SDS011;7157;53.144;7.570;2023-04-03T13:20:10;2.35;;;0.80;;
14153;SDS011;7157;53.144;7.570;2023-04-03T13:30:19;3.30;;;1.03;;
14153;SDS011;7157;53.144;7.570;2023-04-03T13:40:26;2.92;;;0.90;;
14153;SDS011;7157;53.144;7.570;2023-04-03T14:01:20;4.85;;;1.05;;
14153;SDS011;7157;53.144;7.570;2023-04-03T14:11:26;3.20;;;1.10;;
14153;SDS011;7157;53.144;7.570;2023-04-03T14:21:32;4.85;;;1.20;;
14153;SDS011;7157;53.144;7.570;2023-04-03T14:31:35;3.10;;;1.23;;
14153;SDS011;7157;53.144;7.570;2023-04-03T14:41:40;4.90;;;1.20;;
14153;SDS011;7157;53.144;7.570;2023-04-03T14:51:42;3.78;;;1.23;;
14153;SDS011;7157;53.144;7.570;2023-04-03T15:01:47;3.15;;;1.40;;
14153;SDS011;7157;53.144;7.570;2023-04-03T15:11:50;3.28;;;1.10;;
14153;SDS011;7157;53.144;7.570;2023-04-03T15:21:55;6.10;;;1.70;;
14153;SDS011;7157;53.144;7.570;2023-04-03T15:31:58;2.47;;;0.90;;
14153;SDS011;7157;53.144;7.570;2023-04-03T15:42:02;4.13;;;1.52;;
14153;SDS011;7157;53.144;7.570;2023-04-03T15:52:07;5.57;;;1.23;;
14153;SDS011;7157;53.144;7.570;2023-04-03T16:02:11;3.40;;;1.05;;
14153;SDS011;7157;53.144;7.570;2023-04-03T16:12:15;13.82;;;2.10;;
14153;SDS011;7157;53.144;7.570;2023-04-03T16:22:19;4.18;;;1.33;;
14153;SDS011;7157;53.144;7.570;2023-04-03T16:32:22;6.38;;;2.00;;
14153;SDS011;7157;53.144;7.570;2023-04-03T16:42:29;5.22;;;2.13;;
14153;SDS011;7157;53.144;7.570;2023-04-03T16:52:34;3.63;;;1.48;;
14153;SDS011;7157;53.144;7.570;2023-04-03T17:02:38;7.13;;;1.30;;
14153;SDS011;7157;53.144;7.570;2023-04-03T17:12:41;4.63;;;1.10;;
14153;SDS011;7157;53.144;7.570;2023-04-03T17:22:45;3.60;;;1.48;;
14153;SDS011;7157;53.144;7.570;2023-04-03T17:32:48;3.22;;;1.27;;
14153;SDS011;7157;53.144;7.570;2023-04-03T17:42:52;5.80;;;1.10;;
14153;SDS011;7157;53.144;7.570;2023-04-03T17:52:55;7.82;;;1.73;;
14153;SDS011;7157;53.144;7.570;2023-04-03T18:02:59;2.80;;;1.15;;
14153;SDS011;7157;53.144;7.570;2023-04-03T18:13:02;5.68;;;1.90;;
14153;SDS011;7157;53.144;7.570;2023-04-03T18:23:07;4.18;;;1.60;;
14153;SDS011;7157;53.144;7.570;2023-04-03T18:33:10;6.72;;;2.20;;
14153;SDS011;7157;53.144;7.570;2023-04-03T18:43:14;3.97;;;1.80;;
14153;SDS011;7157;53.144;7.570;2023-04-03T18:53:17;7.10;;;2.10;;
14153;SDS011;7157;53.144;7.570;2023-04-03T19:03:21;13.52;;;4.50;;
14153;SDS011;7157;53.144;7.570;2023-04-03T19:13:24;12.27;;;2.15;;
14153;SDS011;7157;53.144;7.570;2023-04-03T19:23:29;4.80;;;2.42;;
14153;SDS011;7157;53.144;7.570;2023-04-03T19:33:32;5.25;;;2.08;;
14153;SDS011;7157;53.144;7.570;2023-04-03T19:43:37;5.40;;;1.88;;
14153;SDS011;7157;53.144;7.570;2023-04-03T19:53:40;2.95;;;1.30;;
14153;SDS011;7157;53.144;7.570;2023-04-03T20:03:44;4.15;;;1.30;;
14153;SDS011;7157;53.144;7.570;2023-04-03T20:13:47;4.68;;;1.50;;
14153;SDS011;7157;53.144;7.570;2023-04-03T20:23:52;6.18;;;1.92;;
14153;SDS011;7157;53.144;7.570;2023-04-03T20:33:54;6.63;;;2.25;;
14153;SDS011;7157;53.144;7.570;2023-04-03T20:43:59;8.40;;;2.55;;
14153;SDS011;7157;53.144;7.570;2023-04-03T20:54:02;4.45;;;1.95;;
14153;SDS011;7157;53.144;7.570;2023-04-03T21:04:09;6.68;;;1.77;;
14153;SDS011;7157;53.144;7.570;2023-04-03T21:24:58;4.35;;;1.50;;
14153;SDS011;7157;53.144;7.570;2023-04-03T21:35:01;4.25;;;1.88;;
14153;SDS011;7157;53.144;7.570;2023-04-03T21:45:07;8.35;;;1.88;;
14153;SDS011;7157;53.144;7.570;2023-04-03T21:55:10;4.15;;;2.30;;
14153;SDS011;7157;53.144;7.570;2023-04-03T22:05:16;6.82;;;1.90;;
14153;SDS011;7157;53.144;7.570;2023-04-03T22:15:19;4.60;;;1.92;;
14153;SDS011;7157;53.144;7.570;2023-04-03T22:25:24;4.72;;;1.90;;
14153;SDS011;7157;53.144;7.570;2023-04-03T22:35:27;5.18;;;1.88;;
14153;SDS011;7157;53.144;7.570;2023-04-03T22:45:31;3.92;;;2.13;;
14153;SDS011;7157;53.144;7.570;2023-04-03T22:55:34;8.45;;;2.30;;
14153;SDS011;7157;53.144;7.570;2023-04-03T23:05:39;4.75;;;2.05;;
14153;SDS011;7157;53.144;7.570;2023-04-03T23:15:42;9.43;;;2.30;;
14153;SDS011;7157;53.144;7.570;2023-04-03T23:25:45;5.38;;;1.83;;
14153;SDS011;7157;53.144;7.570;2023-04-03T23:35:52;3.40;;;1.75;;
14153;SDS011;7157;53.144;7.570;2023-04-03T23:45:57;3.58;;;1.55;;
14153;SDS011;7157;53.144;7.570;2023-04-03T23:55:59;6.00;;;2.13;;
